createdAt,value
2023-04-16T00:13:46.324Z,39.15
2023-04-16T00:27:25.135Z,37.13
2023-04-16T01:56:54.641Z,45.60
2023-04-16T02:55:53.245Z,41.97
2023-04-16T03:03:02.090Z,44.90
2023-04-16T03:56:20.463Z,46.17
2023-04-16T04:03:03.753Z,42.65
2023-04-16T04:17:44.971Z,46.72
2023-04-16T04:32:20.930Z,40.70
2023-04-16T04:39:21.924Z,42.95
2023-04-16T04:41:55.443Z,46.78
2023-04-16T04:45:59.123Z,51.55
2023-04-16T04:57:09.650Z,48.50
2023-04-16T04:59:41.838Z,44.97
2023-04-16T05:02:13.981Z,42.88
2023-04-16T05:04:46.224Z,48.20
2023-04-16T05:07:18.339Z,45.90
2023-04-16T05:09:50.748Z,44.17
2023-04-16T05:12:22.806Z,43.95
2023-04-16T05:14:54.907Z,44.13
2023-04-16T05:17:27.012Z,42.70
2023-04-16T05:19:59.112Z,41.75
2023-04-16T05:22:31.166Z,42.42
2023-04-16T05:25:04.062Z,45.25
2023-04-16T05:27:37.271Z,42.97
2023-04-16T05:30:10.590Z,41.85
2023-04-16T05:32:42.691Z,45.45
2023-04-16T05:35:17.200Z,40.85
2023-04-16T05:37:49.605Z,43.30
2023-04-16T05:40:21.764Z,40.03
2023-04-16T05:42:53.801Z,40.63
2023-04-16T05:45:27.470Z,40.63
2023-04-16T05:48:00.276Z,41.83
2023-04-16T05:50:32.399Z,46.85
2023-04-16T05:53:08.291Z,39.88
2023-04-16T05:55:40.460Z,39.63
2023-04-16T05:58:12.481Z,42.20
2023-04-16T06:00:45.207Z,35.58
2023-04-16T06:03:17.490Z,41.15
2023-04-16T06:05:49.700Z,40.13
2023-04-16T06:08:21.816Z,38.15
2023-04-16T06:10:53.889Z,37.22
2023-04-16T06:13:26.076Z,39.75
2023-04-16T06:15:58.175Z,38.75
2023-04-16T06:18:30.271Z,40.17
2023-04-16T06:21:02.498Z,35.13
2023-04-16T06:23:34.656Z,39.10
2023-04-16T06:26:06.799Z,40.00
2023-04-16T06:28:38.851Z,39.38
2023-04-16T06:31:11.031Z,35.17
2023-04-16T06:33:43.124Z,41.80
2023-04-16T06:36:15.186Z,37.55
2023-04-16T06:38:47.230Z,40.90
2023-04-16T06:41:19.283Z,33.95
2023-04-16T06:43:51.732Z,39.47
2023-04-16T06:46:23.888Z,39.20
2023-04-16T06:48:56.185Z,33.85
2023-04-16T06:51:28.399Z,31.25
2023-04-16T06:54:00.609Z,34.00
2023-04-16T06:56:32.709Z,35.30
2023-04-16T06:59:05.235Z,36.42
2023-04-16T07:01:37.428Z,33.80
2023-04-16T07:04:09.960Z,35.50
2023-04-16T07:06:42.078Z,35.15
2023-04-16T07:09:14.116Z,32.70
2023-04-16T07:11:46.625Z,37.30
2023-04-16T07:14:18.701Z,31.08
2023-04-16T07:16:50.942Z,42.45
2023-04-16T07:19:23.067Z,36.92
2023-04-16T07:21:55.197Z,37.50
2023-04-16T07:24:27.521Z,31.90
2023-04-16T07:26:59.722Z,32.80
2023-04-16T07:29:31.821Z,36.85
2023-04-16T07:32:04.169Z,36.30
2023-04-16T07:34:36.251Z,35.28
2023-04-16T07:37:09.028Z,32.00
2023-04-16T07:39:42.264Z,36.10
2023-04-16T07:42:14.743Z,34.13
2023-04-16T07:44:46.757Z,36.33
2023-04-16T07:47:18.910Z,33.90
2023-04-16T07:49:51.040Z,33.95
2023-04-16T07:52:23.134Z,32.92
2023-04-16T07:54:55.181Z,34.60
2023-04-16T07:57:27.240Z,33.35
2023-04-16T07:59:59.400Z,37.03
2023-04-16T08:02:32.330Z,40.33
2023-04-16T08:05:04.894Z,31.33
2023-04-16T08:07:37.074Z,38.97
2023-04-16T08:10:09.622Z,31.88
2023-04-16T08:12:41.731Z,32.88
2023-04-16T08:15:13.826Z,35.72
2023-04-16T08:17:46.273Z,30.98
2023-04-16T08:20:19.364Z,32.08
2023-04-16T08:22:56.069Z,35.20
2023-04-16T08:25:28.126Z,32.45
2023-04-16T08:28:00.194Z,30.80
2023-04-16T08:30:32.276Z,35.05
2023-04-16T08:33:04.427Z,33.83
2023-04-16T08:35:36.562Z,36.88
2023-04-16T08:38:08.757Z,33.47
2023-04-16T08:40:42.879Z,32.90
2023-04-16T08:43:18.417Z,32.47
2023-04-16T08:45:53.928Z,30.70
2023-04-16T08:48:26.167Z,27.50
2023-04-16T08:51:00.441Z,29.77
2023-04-16T08:53:54.774Z,31.50
2023-04-16T08:56:27.558Z,32.50
2023-04-16T08:59:03.264Z,43.00
2023-04-16T09:01:36.057Z,33.65
2023-04-16T09:04:08.674Z,34.90
2023-04-16T09:06:42.707Z,30.20
2023-04-16T09:09:16.560Z,28.63
2023-04-16T09:11:53.147Z,35.10
2023-04-16T09:14:25.540Z,32.25
2023-04-16T09:17:01.379Z,28.95
2023-04-16T09:19:41.158Z,26.40
2023-04-16T09:22:13.211Z,30.85
2023-04-16T09:24:45.552Z,30.10
2023-04-16T09:27:18.003Z,28.60
2023-04-16T09:29:50.155Z,36.08
2023-04-16T09:32:28.031Z,28.88
2023-04-16T09:35:02.036Z,29.00
2023-04-16T09:37:34.141Z,28.52
2023-04-16T09:40:07.409Z,36.55
2023-04-16T09:42:39.474Z,38.25
2023-04-16T09:45:11.949Z,34.53
2023-04-16T09:47:46.150Z,33.22
2023-04-16T09:50:20.369Z,26.23
2023-04-16T09:52:52.465Z,35.13
2023-04-16T09:55:28.083Z,27.63
2023-04-16T09:58:01.820Z,27.75
2023-04-16T10:00:34.018Z,28.38
2023-04-16T10:03:09.256Z,27.98
2023-04-16T10:05:41.974Z,29.65
2023-04-16T10:08:14.841Z,41.60
2023-04-16T10:10:46.932Z,28.58
2023-04-16T10:13:19.376Z,26.00
2023-04-16T10:15:51.626Z,28.48
2023-04-16T10:18:24.131Z,29.48
2023-04-16T10:20:57.902Z,32.03
2023-04-16T10:23:30.605Z,31.73
2023-04-16T10:26:03.023Z,31.02
2023-04-16T10:28:36.492Z,27.35
2023-04-16T10:31:09.998Z,30.52
2023-04-16T10:33:43.065Z,30.83
2023-04-16T10:36:29.010Z,32.67
2023-04-16T10:39:01.445Z,31.00
2023-04-16T10:41:33.901Z,27.92
2023-04-16T10:44:11.142Z,30.88
2023-04-16T10:46:49.538Z,35.90
2023-04-16T10:49:25.013Z,30.35
2023-04-16T10:52:29.558Z,28.50
2023-04-16T10:55:01.625Z,29.80
2023-04-16T10:57:33.806Z,27.85
2023-04-16T11:00:23.445Z,22.70
2023-04-16T11:02:55.872Z,37.65
2023-04-16T11:05:47.147Z,27.98
2023-04-16T11:08:26.389Z,25.23
2023-04-16T11:10:59.159Z,26.13
2023-04-16T11:13:32.413Z,25.45
2023-04-16T11:16:06.195Z,30.73
2023-04-16T11:18:50.801Z,24.77
2023-04-16T11:21:24.726Z,27.98
2023-04-16T11:23:58.351Z,29.30
2023-04-16T11:26:31.837Z,25.48
2023-04-16T11:29:21.536Z,26.60
2023-04-16T11:31:55.080Z,31.73
2023-04-16T11:34:27.529Z,24.17
2023-04-16T11:36:59.860Z,23.02
2023-04-16T11:39:32.042Z,23.88
2023-04-16T11:42:04.278Z,27.42
2023-04-16T11:44:36.426Z,19.13
2023-04-16T11:47:58.078Z,27.40
2023-04-16T11:50:30.319Z,27.33
2023-04-16T11:53:09.019Z,20.05
2023-04-16T11:55:47.878Z,27.42
2023-04-16T11:58:22.351Z,25.45
2023-04-16T12:00:57.087Z,23.77
2023-04-16T12:03:43.879Z,26.40
2023-04-16T12:06:16.156Z,25.42
2023-04-16T12:08:48.530Z,26.30
2023-04-16T12:11:21.252Z,31.75
2023-04-16T12:14:10.660Z,24.65
2023-04-16T12:16:44.599Z,26.83
2023-04-16T12:19:16.804Z,26.52
2023-04-16T12:21:51.240Z,25.88
2023-04-16T12:24:27.626Z,25.95
2023-04-16T12:27:03.381Z,33.97
2023-04-16T12:29:44.727Z,29.08
2023-04-16T12:32:23.681Z,26.60
2023-04-16T12:34:55.830Z,27.75
2023-04-16T12:37:28.021Z,25.45
2023-04-16T12:40:00.193Z,27.50
2023-04-16T12:42:36.295Z,31.73
2023-04-16T12:45:08.679Z,31.27
2023-04-16T12:47:41.112Z,30.13
2023-04-16T12:50:13.254Z,28.58
2023-04-16T12:52:45.732Z,34.70
2023-04-16T12:55:18.070Z,29.38
2023-04-16T12:57:52.988Z,28.90
2023-04-16T13:00:25.620Z,33.00
2023-04-16T13:02:57.811Z,28.48
2023-04-16T13:05:30.050Z,31.35
2023-04-16T13:08:07.751Z,33.85
2023-04-16T13:10:39.997Z,31.98
2023-04-16T13:13:12.082Z,31.77
2023-04-16T13:15:44.223Z,29.23
2023-04-16T13:18:16.432Z,33.75
2023-04-16T13:20:48.567Z,31.35
2023-04-16T13:23:20.777Z,27.35
2023-04-16T13:25:53.309Z,27.95
2023-04-16T13:28:25.718Z,29.15
2023-04-16T13:31:01.670Z,29.08
2023-04-16T13:33:35.687Z,30.80
2023-04-16T13:36:07.847Z,32.25
2023-04-16T13:38:39.973Z,28.92
2023-04-16T13:41:12.161Z,33.17
2023-04-16T13:43:44.219Z,26.20
2023-04-16T13:46:16.535Z,32.78
2023-04-16T13:48:48.742Z,29.50
2023-04-16T13:51:21.227Z,29.40
2023-04-16T13:53:55.073Z,38.58
2023-04-16T13:56:27.286Z,35.47
2023-04-16T13:58:59.387Z,34.63
2023-04-16T14:01:31.613Z,30.92
2023-04-16T14:04:06.760Z,35.35
2023-04-16T14:06:39.199Z,32.13
2023-04-16T14:09:11.612Z,38.00
2023-04-16T14:11:44.000Z,37.33
2023-04-16T14:14:34.299Z,33.45
2023-04-16T14:17:07.861Z,30.92
2023-04-16T14:19:40.007Z,34.90
2023-04-16T14:22:12.181Z,32.08
2023-04-16T14:24:44.772Z,35.85
2023-04-16T14:27:17.391Z,36.30
2023-04-16T14:29:49.631Z,35.30
2023-04-16T14:32:21.959Z,33.83
2023-04-16T14:34:54.080Z,30.55
2023-04-16T14:37:26.808Z,36.70
2023-04-16T14:39:58.976Z,32.60
2023-04-16T14:42:31.173Z,37.95
2023-04-16T14:45:06.747Z,36.95
2023-04-16T14:47:45.991Z,30.92
2023-04-16T14:50:18.464Z,29.33
2023-04-16T14:52:51.589Z,36.45
2023-04-16T14:55:23.744Z,37.40
2023-04-16T14:57:56.600Z,32.00
2023-04-16T15:00:28.822Z,30.35
2023-04-16T15:03:01.322Z,34.50
2023-04-16T15:05:34.080Z,33.83
2023-04-16T15:08:06.345Z,29.65
2023-04-16T15:10:38.448Z,32.40
2023-04-16T15:13:10.621Z,32.20
2023-04-16T15:15:42.818Z,38.33
2023-04-16T15:18:16.582Z,30.13
2023-04-16T15:20:49.008Z,34.78
2023-04-16T15:23:21.765Z,36.92
2023-04-16T15:25:54.004Z,33.45
2023-04-16T15:28:26.156Z,35.00
2023-04-16T15:30:58.693Z,32.10
2023-04-16T15:33:30.972Z,32.83
2023-04-16T15:36:04.018Z,31.98
2023-04-16T15:38:38.400Z,32.13
2023-04-16T15:41:59.777Z,36.97
2023-04-16T15:44:33.814Z,37.00
2023-04-16T15:47:08.047Z,33.47
2023-04-16T15:49:40.169Z,35.97
2023-04-16T15:52:12.406Z,31.33
2023-04-16T15:54:44.599Z,34.25
2023-04-16T15:57:18.220Z,34.08
2023-04-16T16:00:05.848Z,30.00
2023-04-16T16:02:44.045Z,29.85
2023-04-16T16:05:17.125Z,30.20
2023-04-16T16:07:49.220Z,33.60
2023-04-16T16:10:21.325Z,33.30
2023-04-16T16:12:53.915Z,27.75
2023-04-16T16:15:26.028Z,32.78
2023-04-16T16:17:58.299Z,34.63
2023-04-16T16:20:30.542Z,32.38
2023-04-16T16:23:03.789Z,29.98
2023-04-16T16:25:36.063Z,25.05
2023-04-16T16:28:08.631Z,31.77
2023-04-16T16:30:40.984Z,27.27
2023-04-16T16:33:14.619Z,24.30
2023-04-16T16:35:49.024Z,28.77
2023-04-16T16:38:21.294Z,29.73
2023-04-16T16:40:53.353Z,38.45
2023-04-16T16:43:25.575Z,36.08
2023-04-16T16:45:57.662Z,35.38
2023-04-16T16:48:29.820Z,32.30
2023-04-16T16:51:01.976Z,29.60
2023-04-16T16:53:34.354Z,28.42
2023-04-16T16:56:06.727Z,29.63
2023-04-16T16:58:38.908Z,29.45
2023-04-16T17:01:11.353Z,28.08
2023-04-16T17:03:43.542Z,30.92
2023-04-16T17:06:15.741Z,34.22
2023-04-16T17:08:48.405Z,30.33
2023-04-16T17:11:20.607Z,32.97
2023-04-16T17:13:53.659Z,33.88
2023-04-16T17:16:25.897Z,30.52
2023-04-16T17:18:59.448Z,26.65
2023-04-16T17:21:33.372Z,31.00
2023-04-16T17:24:05.671Z,31.42
2023-04-16T17:26:39.595Z,25.58
2023-04-16T17:29:13.049Z,35.92
2023-04-16T17:31:45.293Z,28.60
2023-04-16T17:34:19.840Z,27.10
2023-04-16T17:36:52.046Z,25.10
2023-04-16T17:39:24.156Z,29.42
2023-04-16T17:41:58.674Z,26.67
2023-04-16T17:44:30.888Z,27.00
2023-04-16T17:47:03.031Z,31.25
2023-04-16T17:49:35.279Z,25.02
2023-04-16T17:52:07.556Z,25.15
2023-04-16T17:54:39.778Z,25.45
2023-04-16T17:57:11.926Z,27.45
2023-04-16T17:59:44.124Z,26.85
2023-04-16T18:02:42.330Z,23.65
2023-04-16T18:05:14.838Z,31.33
2023-04-16T18:07:48.461Z,31.25
2023-04-16T18:10:20.676Z,34.08
2023-04-16T18:12:52.924Z,27.52
2023-04-16T18:15:25.562Z,28.88
2023-04-16T18:17:57.854Z,32.75
2023-04-16T18:20:30.079Z,27.02
2023-04-16T18:23:02.879Z,31.02
2023-04-16T18:25:35.477Z,34.20
2023-04-16T18:28:08.013Z,27.73
2023-04-16T18:30:40.693Z,33.05
2023-04-16T18:33:38.848Z,32.47
2023-04-16T18:36:06.646Z,29.58
2023-04-16T18:38:49.440Z,33.65
2023-04-16T18:41:30.181Z,27.40
2023-04-16T18:44:02.384Z,29.50
2023-04-16T18:46:34.510Z,30.88
2023-04-16T18:49:06.765Z,29.67
2023-04-16T18:51:39.046Z,32.10
2023-04-16T18:54:11.526Z,27.88
2023-04-16T18:56:43.665Z,30.95
2023-04-16T18:59:15.830Z,26.23
2023-04-16T19:01:47.980Z,30.55
2023-04-16T19:04:20.194Z,31.98
2023-04-16T19:06:52.502Z,28.45
2023-04-16T19:09:27.314Z,29.35
2023-04-16T19:11:59.467Z,28.15
2023-04-16T19:14:31.604Z,25.00
2023-04-16T19:17:03.817Z,30.98
2023-04-16T19:19:36.029Z,25.23
2023-04-16T19:22:08.116Z,25.80
2023-04-16T19:24:40.373Z,40.00
2023-04-16T19:27:12.499Z,25.00
2023-04-16T19:29:45.498Z,28.15
2023-04-16T19:32:17.720Z,26.85
2023-04-16T19:34:52.197Z,26.42
2023-04-16T19:44:44.161Z,28.27
2023-04-16T19:48:22.351Z,31.75
2023-04-16T19:51:12.114Z,28.25
2023-04-16T19:54:08.901Z,32.22
2023-04-16T19:56:48.200Z,31.02
2023-04-16T19:59:25.362Z,27.00
2023-04-16T20:02:10.521Z,26.40
2023-04-16T20:05:07.802Z,27.48
2023-04-16T20:07:44.699Z,31.83
2023-04-16T20:10:21.357Z,31.90
2023-04-16T20:13:18.475Z,30.08
2023-04-16T20:23:30.462Z,35.80
2023-04-16T20:26:37.432Z,31.08
2023-04-16T20:29:16.966Z,31.73
2023-04-16T20:31:52.642Z,32.63
2023-04-16T20:34:28.597Z,33.78
2023-04-16T20:37:01.169Z,30.20
2023-04-16T20:39:34.524Z,31.83
2023-04-16T20:42:10.411Z,32.40
2023-04-16T20:44:42.652Z,29.98
2023-04-16T20:47:17.261Z,32.05
2023-04-16T20:49:57.390Z,38.53
2023-04-16T20:52:30.003Z,31.88
2023-04-16T20:55:05.169Z,39.95
2023-04-16T20:57:39.943Z,31.25
2023-04-16T21:00:13.523Z,36.83
2023-04-16T21:02:54.178Z,37.25
2023-04-16T21:05:26.885Z,35.28
2023-04-16T21:07:59.148Z,36.53
2023-04-16T21:10:31.528Z,34.58
2023-04-16T21:13:04.063Z,36.70
2023-04-16T21:15:38.876Z,34.45
2023-04-16T21:18:11.788Z,39.83
2023-04-16T21:20:44.011Z,31.30
2023-04-16T21:23:16.746Z,35.60
2023-04-16T21:25:49.018Z,33.17
2023-04-16T21:28:21.305Z,36.22
2023-04-16T21:30:53.849Z,31.55
2023-04-16T21:33:26.150Z,36.60
2023-04-16T21:35:58.396Z,36.60
2023-04-16T21:38:30.650Z,37.80
2023-04-16T21:41:02.838Z,36.90
2023-04-16T21:43:38.523Z,33.30
2023-04-16T21:46:11.047Z,35.58
2023-04-16T21:48:43.277Z,36.88
2023-04-16T21:51:16.099Z,39.92
2023-04-16T21:53:48.507Z,35.83
2023-04-16T21:56:21.212Z,39.15
2023-04-16T21:58:53.330Z,36.88
2023-04-16T22:01:25.595Z,37.53
2023-04-16T22:03:57.782Z,33.40
2023-04-16T22:06:29.949Z,37.28
2023-04-16T22:09:02.177Z,36.08
2023-04-16T22:11:34.283Z,39.75
2023-04-16T22:14:09.017Z,36.22
2023-04-16T22:16:42.113Z,36.65
2023-04-16T22:19:14.378Z,40.15
2023-04-16T22:21:47.691Z,35.60
2023-04-16T22:24:20.323Z,38.45
2023-04-16T22:26:52.454Z,42.85
2023-04-16T22:29:24.512Z,36.20
2023-04-16T22:31:56.690Z,40.55
2023-04-16T22:34:28.904Z,33.83
2023-04-16T22:37:03.320Z,33.85
2023-04-16T22:39:35.762Z,36.47
2023-04-16T22:42:07.868Z,39.97
2023-04-16T22:44:40.112Z,38.17
2023-04-16T22:47:12.311Z,39.75
2023-04-16T22:49:44.432Z,38.03
2023-04-16T22:52:16.647Z,42.33
2023-04-16T22:54:48.816Z,45.95
2023-04-16T22:57:25.816Z,36.58
2023-04-16T22:59:58.112Z,39.67
2023-04-16T23:02:30.277Z,40.13
2023-04-16T23:05:02.444Z,38.17
2023-04-16T23:07:34.600Z,34.20
2023-04-16T23:10:08.835Z,38.42
2023-04-16T23:12:41.465Z,37.55
2023-04-16T23:15:13.610Z,41.88
2023-04-16T23:17:46.903Z,42.40
2023-04-16T23:20:19.343Z,37.95
2023-04-16T23:22:52.944Z,39.47
2023-04-16T23:25:25.936Z,43.47
2023-04-16T23:27:58.136Z,38.33
2023-04-16T23:30:30.220Z,36.65
2023-04-16T23:33:03.138Z,39.35
2023-04-16T23:35:35.328Z,35.85
2023-04-16T23:38:07.719Z,40.13
2023-04-16T23:40:39.988Z,36.78
2023-04-16T23:43:12.277Z,40.85
2023-04-16T23:45:44.572Z,42.63
2023-04-16T23:48:17.136Z,41.53
2023-04-16T23:50:49.354Z,41.75
2023-04-16T23:53:22.080Z,34.85
2023-04-16T23:55:54.297Z,42.65
2023-04-16T23:58:26.990Z,40.58
